Weather at San Francisco International Airport

Public forecast

Using degrees Fahrenheit for public forecast. Weather courtesy of forecast.io.

Current aviation weather report (METAR) for San Francisco International Airport

Retrieved 2021/01/23 21:56 UTC (56 minutes ago):

KSFO 232156Z 30009KT 10SM FEW033 14/04 A2995 RMK AO2 WSHFT 2117 SLP143 T01390044

Aviation forecast (TAF) for San Francisco International Airport

Retrieved 2021/01/23 18:36 UTC (4 hours ago):

TAF KSFO 231732Z 2318/2424 02005KT P6SM SCT025 FM232300 29013KT P6SM FEW030 FM240500 28008KT P6SM SCT020 FM241000 VRB03KT P6SM BKN015 FM241700 27010KT P6SM SCT020 BKN120 FM242000 28012G18KT P6SM VCSH SCT020 BKN040 OVC080 FM242300 22010KT 6SM RA OVC025